Time;durP1;ratioP1;P1;durP2;ratioP2;P2;SDS_P1;SDS_P2;PMS_P1;PMS_P2;Temp;Humidity;BMP_temperature;BMP_pressure;BME280_temperature;BME280_humidity;BME280_pressure;Samples;Min_cycle;Max_cycle;Signal;HPM_P1;HPM_P2
2022/06/26 00:02:06;;;;;;;8.27;5.55;;;18.00;99.90;;;;;;6225834;22;20016;-92
2022/06/26 00:04:32;;;;;;;9.77;5.63;;;18.00;99.90;;;;;;6226097;22;20039;-93
2022/06/26 00:07:00;;;;;;;8.52;5.35;;;18.00;99.90;;;;;;6225758;22;20091;-93
2022/06/26 00:09:27;;;;;;;9.85;5.57;;;18.00;99.90;;;;;;6225408;22;20023;-93
2022/06/26 00:11:52;;;;;;;8.80;5.40;;;17.90;99.90;;;;;;6225486;22;20353;-94
2022/06/26 00:14:18;;;;;;;8.93;5.47;;;17.90;99.90;;;;;;6225771;22;20071;-93
2022/06/26 00:16:44;;;;;;;9.55;6.35;;;17.90;99.90;;;;;;6225370;22;20023;-93
2022/06/26 00:19:10;;;;;;;10.30;6.20;;;17.90;99.90;;;;;;6225217;22;20368;-94
2022/06/26 00:21:35;;;;;;;9.27;6.15;;;17.90;99.90;;;;;;6225386;22;20019;-94
2022/06/26 00:24:01;;;;;;;12.77;7.97;;;17.90;99.90;;;;;;6225385;22;20095;-93
2022/06/26 00:26:27;;;;;;;12.40;7.25;;;17.90;99.90;;;;;;6225312;22;20347;-93
2022/06/26 00:28:53;;;;;;;10.43;7.13;;;17.90;99.90;;;;;;6225156;22;20012;-92
2022/06/26 00:31:19;;;;;;;12.18;8.10;;;18.00;99.90;;;;;;6224386;22;20441;-93
2022/06/26 00:33:44;;;;;;;12.05;7.90;;;18.00;99.90;;;;;;6223700;22;20046;-93
2022/06/26 00:36:10;;;;;;;12.32;7.93;;;18.00;99.90;;;;;;6249631;22;20019;-94
2022/06/26 00:38:36;;;;;;;13.73;8.82;;;18.00;99.90;;;;;;6223707;22;20153;-91
2022/06/26 00:41:02;;;;;;;13.50;8.52;;;18.10;99.90;;;;;;6248023;22;20020;-92
2022/06/26 00:43:28;;;;;;;12.52;8.77;;;18.00;99.90;;;;;;6222992;22;20018;-92
2022/06/26 00:45:54;;;;;;;14.30;8.85;;;18.00;99.90;;;;;;6222841;22;20023;-91
2022/06/26 00:48:20;;;;;;;15.23;8.93;;;18.00;99.90;;;;;;6223234;22;20099;-91
2022/06/26 00:50:46;;;;;;;12.77;7.63;;;18.00;99.90;;;;;;6224325;22;20016;-92
2022/06/26 00:53:12;;;;;;;13.57;8.82;;;18.00;99.90;;;;;;6223795;22;20081;-91
2022/06/26 00:55:38;;;;;;;14.38;9.05;;;18.00;99.90;;;;;;6223819;22;20448;-92
2022/06/26 00:58:04;;;;;;;13.73;8.95;;;18.00;99.90;;;;;;6249284;22;20016;-92
2022/06/26 01:00:30;;;;;;;14.48;9.18;;;18.00;99.90;;;;;;6225975;22;20034;-92
2022/06/26 01:02:56;;;;;;;12.82;8.27;;;18.00;99.90;;;;;;6225029;22;20015;-92
2022/06/26 01:05:21;;;;;;;14.30;9.65;;;18.00;99.90;;;;;;6249478;22;20008;-90
2022/06/26 01:07:47;;;;;;;14.70;9.63;;;18.00;99.90;;;;;;6222928;22;20050;-91
2022/06/26 01:10:13;;;;;;;14.38;9.10;;;18.00;99.90;;;;;;6222322;22;20031;-88
2022/06/26 01:12:39;;;;;;;14.07;9.15;;;18.00;99.90;;;;;;6247885;22;20020;-91
2022/06/26 01:15:09;;;;;;;15.15;8.77;;;18.00;99.90;;;;;;6222694;22;20062;-93
2022/06/26 01:17:35;;;;;;;13.25;8.23;;;18.00;99.90;;;;;;6222945;22;20050;-92
2022/06/26 01:20:02;;;;;;;14.73;9.32;;;18.00;99.90;;;;;;6223099;22;20069;-94
2022/06/26 01:22:29;;;;;;;17.77;11.75;;;18.00;99.90;;;;;;6222951;22;20018;-92
2022/06/26 01:24:55;;;;;;;18.17;10.73;;;18.00;99.90;;;;;;6222473;22;20011;-92
2022/06/26 01:27:20;;;;;;;13.98;9.65;;;18.00;99.90;;;;;;6222281;22;20177;-92
2022/06/26 01:29:49;;;;;;;12.00;8.10;;;18.00;99.90;;;;;;6247936;22;20008;-92
2022/06/26 01:32:35;;;;;;;13.10;8.07;;;18.00;99.90;;;;;;6222765;22;20012;-93
2022/06/26 01:35:04;;;;;;;11.65;7.50;;;18.00;99.90;;;;;;6222964;22;20020;-92
2022/06/26 01:37:29;;;;;;;14.18;9.07;;;18.00;99.90;;;;;;6224002;22;20011;-96
2022/06/26 01:39:55;;;;;;;12.85;7.55;;;18.10;99.90;;;;;;6224703;22;20011;-92
2022/06/26 01:42:37;;;;;;;12.52;7.88;;;18.20;99.90;;;;;;6224834;22;20073;-90
2022/06/26 01:46:37;;;;;;;12.00;7.63;;;18.30;99.90;;;;;;6224622;22;20090;-93
2022/06/26 01:49:49;;;;;;;13.40;7.95;;;18.30;99.90;;;;;;6232920;22;20070;-93
2022/06/26 01:53:06;;;;;;;;;;;;;;;;;;;;;
2022/06/26 01:55:41;;;;;;;10.20;6.70;;;18.40;99.90;;;;;;6101941;23;20022;-92
2022/06/26 01:58:08;;;;;;;10.73;7.22;;;18.40;99.90;;;;;;6240162;22;20016;-93
2022/06/26 02:00:55;;;;;;;12.45;7.63;;;18.40;99.90;;;;;;6225750;22;20019;-93
2022/06/26 02:03:24;;;;;;;11.90;7.50;;;18.40;99.90;;;;;;6225035;22;20379;-91
2022/06/26 02:05:50;;;;;;;11.48;7.40;;;18.50;99.90;;;;;;6225039;22;20479;-90
2022/06/26 02:08:16;;;;;;;11.50;7.57;;;18.50;99.90;;;;;;6225048;22;20023;-91
2022/06/26 02:13:37;;;;;;;9.77;6.88;;;18.50;99.90;;;;;;6249207;22;20046;-91
2022/06/26 02:16:13;;;;;;;12.90;7.35;;;18.50;99.90;;;;;;6223778;22;20345;-91
2022/06/26 02:18:41;;;;;;;9.80;6.57;;;18.50;99.90;;;;;;6223772;22;20027;-93
2022/06/26 02:21:09;;;;;;;10.88;6.75;;;18.50;99.90;;;;;;6198550;22;20063;-92
2022/06/26 02:23:37;;;;;;;10.88;6.75;;;18.50;99.90;;;;;;6223634;22;20449;-91
2022/06/26 02:26:04;;;;;;;10.60;6.55;;;18.50;99.90;;;;;;6224196;22;20011;-91
2022/06/26 02:28:30;;;;;;;9.85;6.78;;;18.50;99.90;;;;;;6225829;22;20370;-94
2022/06/26 02:30:56;;;;;;;10.82;6.70;;;18.50;99.90;;;;;;6225806;22;20058;-89
2022/06/26 02:33:23;;;;;;;9.88;6.35;;;18.40;99.90;;;;;;6225935;22;20015;-90
2022/06/26 02:35:49;;;;;;;;;;;18.50;99.90;;;;;;6226528;22;20439;-90
2022/06/26 02:38:15;;;;;;;9.27;5.82;;;18.50;99.90;;;;;;6276624;22;19957;-89
2022/06/26 02:40:41;;;;;;;8.55;5.57;;;18.50;99.90;;;;;;6225517;22;20042;-88
2022/06/26 02:43:07;;;;;;;9.50;5.18;;;18.50;99.90;;;;;;6251171;22;20049;-90
2022/06/26 02:45:33;;;;;;;9.30;5.55;;;18.50;99.90;;;;;;6225674;22;20026;-92
2022/06/26 02:47:59;;;;;;;8.00;4.85;;;18.50;99.90;;;;;;6278126;22;20020;-89
2022/06/26 02:50:24;;;;;;;7.93;4.50;;;18.50;99.90;;;;;;6251055;22;20046;-92
2022/06/26 02:52:50;;;;;;;5.78;3.47;;;18.40;99.90;;;;;;6225626;22;20051;-90
2022/06/26 02:55:16;;;;;;;6.75;3.13;;;18.40;99.90;;;;;;6251181;22;20016;-90
2022/06/26 02:57:42;;;;;;;5.57;3.28;;;18.30;99.90;;;;;;6278015;22;20024;-92
2022/06/26 03:00:10;;;;;;;5.57;2.85;;;18.30;99.90;;;;;;6226041;22;20109;-89
2022/06/26 03:02:35;;;;;;;5.32;3.03;;;18.20;99.90;;;;;;6250774;22;20086;-89
2022/06/26 03:05:01;;;;;;;5.80;2.90;;;18.20;99.90;;;;;;6225919;22;20015;-90
2022/06/26 03:07:27;;;;;;;7.43;2.97;;;18.20;99.90;;;;;;6225451;22;20459;-92
2022/06/26 03:09:53;;;;;;;6.72;3.17;;;18.20;99.90;;;;;;6225576;22;20018;-89
2022/06/26 03:12:19;;;;;;;4.00;2.20;;;18.20;99.90;;;;;;6249954;22;20024;-89
2022/06/26 03:14:44;;;;;;;4.55;2.80;;;18.10;99.90;;;;;;6250856;22;20023;-89
2022/06/26 03:17:10;;;;;;;5.55;2.55;;;18.10;99.90;;;;;;6226340;22;20026;-89
2022/06/26 03:19:36;;;;;;;3.40;1.73;;;18.10;99.90;;;;;;6226401;22;20095;-90
2022/06/26 03:22:03;;;;;;;3.10;1.50;;;18.10;99.90;;;;;;6226652;22;20352;-89
2022/06/26 03:24:29;;;;;;;4.45;2.00;;;18.10;99.90;;;;;;6251205;22;20094;-88
2022/06/26 03:26:55;;;;;;;3.42;1.80;;;18.10;99.90;;;;;;6250452;22;20043;-90
2022/06/26 03:29:20;;;;;;;4.63;1.98;;;18.00;99.90;;;;;;6249052;22;20468;-89
2022/06/26 03:31:46;;;;;;;3.28;1.88;;;18.00;99.90;;;;;;6248249;22;20011;-93
2022/06/26 03:34:12;;;;;;;5.85;2.30;;;18.00;99.90;;;;;;6248329;22;20469;-90
2022/06/26 03:36:40;;;;;;;3.13;1.70;;;18.00;99.90;;;;;;6223329;22;20027;-92
2022/06/26 03:39:05;;;;;;;3.58;2.05;;;18.00;99.90;;;;;;6223272;22;20019;-90
2022/06/26 03:41:31;;;;;;;3.80;1.98;;;18.00;99.90;;;;;;6223178;22;20085;-91
2022/06/26 03:44:11;;;;;;;3.30;1.83;;;18.00;99.90;;;;;;6225562;22;20053;-91
2022/06/26 03:46:46;;;;;;;4.85;1.95;;;17.90;99.90;;;;;;6225363;22;20015;-92
2022/06/26 03:49:12;;;;;;;4.30;1.80;;;18.00;99.90;;;;;;6225433;22;20324;-90
2022/06/26 03:51:37;;;;;;;2.88;1.48;;;18.00;99.90;;;;;;6225709;22;20047;-93
2022/06/26 03:54:03;;;;;;;4.05;1.80;;;18.00;99.90;;;;;;6225339;22;20016;-90
2022/06/26 03:56:29;;;;;;;2.85;1.40;;;18.00;99.90;;;;;;6225191;22;20051;-90
2022/06/26 03:58:54;;;;;;;4.20;1.50;;;18.00;99.90;;;;;;6225336;22;20020;-90
2022/06/26 04:01:20;;;;;;;3.25;1.48;;;18.00;99.90;;;;;;6250495;22;20023;-90
2022/06/26 04:03:46;;;;;;;3.20;1.27;;;18.00;99.90;;;;;;6225292;22;20020;-90
2022/06/26 04:06:14;;;;;;;3.22;1.38;;;18.00;99.90;;;;;;6225437;22;20373;-92
2022/06/26 04:08:48;;;;;;;2.20;1.02;;;18.00;99.90;;;;;;6225208;22;20330;-91
2022/06/26 04:11:15;;;;;;;2.15;1.08;;;18.00;99.90;;;;;;6224325;22;20054;-89
2022/06/26 04:13:42;;;;;;;2.75;1.25;;;18.00;99.90;;;;;;6250247;22;20107;-90
2022/06/26 04:16:10;;;;;;;2.17;1.05;;;18.00;99.90;;;;;;6224847;22;20066;-93
2022/06/26 04:18:36;;;;;;;2.72;1.10;;;17.90;99.90;;;;;;6250163;22;20019;-89
2022/06/26 04:21:02;;;;;;;2.83;1.15;;;17.90;99.90;;;;;;6250410;22;20016;-90
2022/06/26 04:23:28;;;;;;;;;;;17.90;99.90;;;;;;6225195;22;20464;-89
2022/06/26 04:25:53;;;;;;;2.47;0.90;;;17.90;99.90;;;;;;6224781;22;19916;-89
2022/06/26 04:28:19;;;;;;;1.70;0.90;;;17.90;99.90;;;;;;6224785;22;20534;-89
2022/06/26 04:30:45;;;;;;;2.22;1.00;;;17.90;99.90;;;;;;6224850;22;20041;-89
2022/06/26 04:33:11;;;;;;;2.08;1.02;;;17.90;99.90;;;;;;6224897;22;20020;-89
2022/06/26 04:35:36;;;;;;;1.73;0.80;;;17.90;99.90;;;;;;6250251;22;20008;-90
2022/06/26 04:38:03;;;;;;;2.20;1.00;;;17.90;99.90;;;;;;6224559;22;20073;-92
2022/06/26 04:40:29;;;;;;;;;;;17.90;99.90;;;;;;6224873;22;20019;-90
2022/06/26 04:42:55;;;;;;;2.22;1.10;;;17.90;99.90;;;;;;6224621;22;19915;-90
2022/06/26 04:45:21;;;;;;;2.13;0.98;;;17.90;99.90;;;;;;6224856;22;20057;-89
2022/06/26 04:47:47;;;;;;;3.22;1.30;;;17.90;99.90;;;;;;6250053;22;20015;-90
2022/06/26 04:50:16;;;;;;;2.05;1.02;;;17.90;99.90;;;;;;6224792;22;20016;-95
2022/06/26 04:52:49;;;;;;;1.88;0.90;;;17.90;99.90;;;;;;6224529;22;20056;-90
2022/06/26 04:55:15;;;;;;;2.85;1.40;;;17.90;99.90;;;;;;6224477;22;20019;-92
2022/06/26 04:57:44;;;;;;;2.83;1.13;;;17.90;99.90;;;;;;6223678;22;20457;-90
2022/06/26 05:00:13;;;;;;;2.70;1.10;;;17.90;99.90;;;;;;6247363;22;20091;-89
2022/06/26 05:02:39;;;;;;;1.92;1.10;;;17.90;99.90;;;;;;6247233;22;20340;-90
2022/06/26 05:05:05;;;;;;;2.53;1.10;;;17.90;99.90;;;;;;6222006;22;20098;-91
2022/06/26 05:07:31;;;;;;;3.40;1.35;;;18.00;99.90;;;;;;6247789;22;20345;-90
2022/06/26 05:09:57;;;;;;;3.80;1.30;;;18.00;99.90;;;;;;6247383;22;20492;-92
2022/06/26 05:12:33;;;;;;;2.85;1.17;;;17.90;99.90;;;;;;6222181;22;20104;-91
2022/06/26 05:14:59;;;;;;;2.13;1.13;;;18.00;99.90;;;;;;6221860;22;20440;-89
2022/06/26 05:17:24;;;;;;;3.20;1.40;;;18.00;99.90;;;;;;6247058;22;20022;-90
2022/06/26 05:19:50;;;;;;;3.35;1.42;;;18.00;99.90;;;;;;6247179;22;20341;-89
2022/06/26 05:22:16;;;;;;;3.50;1.10;;;18.00;99.90;;;;;;6247065;22;20152;-93
2022/06/26 05:24:42;;;;;;;2.60;1.10;;;18.00;99.90;;;;;;6221962;22;20012;-89
2022/06/26 05:27:08;;;;;;;3.33;1.50;;;18.00;99.90;;;;;;6246868;22;20077;-89
2022/06/26 05:29:34;;;;;;;2.45;1.42;;;18.00;99.90;;;;;;6276056;22;20019;-88
2022/06/26 05:32:00;;;;;;;2.70;1.40;;;18.00;99.90;;;;;;6224026;22;20023;-88
2022/06/26 05:34:25;;;;;;;2.97;1.25;;;18.10;99.90;;;;;;6223916;22;20100;-90
2022/06/26 05:36:51;;;;;;;3.80;1.60;;;18.10;99.90;;;;;;6249459;22;20437;-93
2022/06/26 05:39:17;;;;;;;3.35;1.55;;;18.10;99.90;;;;;;6276574;22;20043;-92
2022/06/26 05:41:43;;;;;;;4.00;1.80;;;18.20;99.90;;;;;;6249267;22;20380;-91
2022/06/26 05:44:08;;;;;;;3.70;1.52;;;18.20;99.90;;;;;;6249853;22;20038;-89
2022/06/26 05:46:34;;;;;;;3.25;1.50;;;18.20;99.90;;;;;;6224502;22;20035;-95
2022/06/26 05:49:00;;;;;;;3.88;1.63;;;18.20;99.90;;;;;;6249838;22;20082;-95
2022/06/26 05:51:25;;;;;;;4.05;1.77;;;18.30;99.90;;;;;;6224356;22;20267;-89
2022/06/26 05:53:51;;;;;;;3.83;1.42;;;18.30;99.90;;;;;;6224349;22;20396;-87
2022/06/26 05:56:17;;;;;;;3.53;1.80;;;18.30;99.90;;;;;;6224144;22;20016;-94
2022/06/26 05:58:43;;;;;;;3.92;1.90;;;18.30;99.90;;;;;;6275265;22;20062;-90
2022/06/26 06:01:08;;;;;;;4.60;2.28;;;18.30;99.90;;;;;;6249575;22;20020;-90
2022/06/26 06:03:34;;;;;;;4.03;2.30;;;18.20;99.90;;;;;;6248220;22;20038;-91
2022/06/26 06:06:00;;;;;;;5.18;2.58;;;18.30;99.90;;;;;;6222889;22;20015;-90
2022/06/26 06:08:26;;;;;;;6.15;2.80;;;18.30;99.90;;;;;;6222633;22;20018;-95
2022/06/26 06:10:52;;;;;;;5.93;3.42;;;18.20;99.90;;;;;;6248276;22;20457;-92
2022/06/26 06:13:18;;;;;;;6.00;3.03;;;18.30;99.90;;;;;;6247975;22;20020;-90
2022/06/26 06:15:43;;;;;;;6.35;3.15;;;18.30;99.90;;;;;;6221516;22;20026;-94
2022/06/26 06:18:11;;;;;;;6.20;2.97;;;18.30;99.90;;;;;;6274507;22;20015;-91
2022/06/26 06:20:37;;;;;;;5.85;3.58;;;18.30;99.90;;;;;;6221447;22;20016;-87
2022/06/26 06:23:24;;;;;;;5.75;3.20;;;18.30;99.90;;;;;;6247172;22;20026;-90
2022/06/26 06:25:50;;;;;;;;;;;18.30;99.90;;;;;;6249565;22;20007;-87
2022/06/26 06:28:15;;;;;;;7.07;3.40;;;18.40;99.90;;;;;;6224283;22;20030;-90
2022/06/26 06:30:43;;;;;;;6.82;3.45;;;18.30;99.90;;;;;;6225432;22;20024;-87
2022/06/26 06:33:09;;;;;;;5.72;3.33;;;18.30;99.90;;;;;;6276927;22;20456;-88
2022/06/26 06:35:34;;;;;;;6.20;3.60;;;18.40;99.90;;;;;;6249941;22;20016;-88
2022/06/26 06:38:00;;;;;;;7.13;3.55;;;18.40;99.90;;;;;;6251578;22;20019;-95
2022/06/26 06:40:51;;;;;;;6.93;3.90;;;18.40;99.90;;;;;;6279370;22;20026;-93
2022/06/26 07:16:35;;;;;;;9.77;5.63;;;18.80;99.90;;;;;;6216873;22;20025;-92
2022/06/26 07:19:21;;;;;;;10.23;5.82;;;18.80;99.90;;;;;;6197706;23;20120;-93
2022/06/26 07:21:55;;;;;;;9.25;5.53;;;18.80;99.90;;;;;;6173471;23;20027;-94
2022/06/26 07:24:21;;;;;;;11.68;6.07;;;18.80;99.90;;;;;;6190796;23;20019;-93
2022/06/26 07:27:55;;;;;;;11.32;6.53;;;18.90;99.90;;;;;;6190536;23;20048;-92
2022/06/26 07:30:39;;;;;;;9.82;5.82;;;18.80;99.90;;;;;;6025429;23;20019;-90
2022/06/26 07:34:12;;;;;;;10.32;6.43;;;18.90;99.90;;;;;;6124116;23;20016;-92
2022/06/26 07:35:52;;;;;;;10.35;6.30;;;19.00;99.90;;;;;;6218832;23;20024;-92
2022/06/26 07:38:18;;;;;;;11.80;6.80;;;19.00;99.90;;;;;;6190908;23;20454;-93
2022/06/26 07:40:43;;;;;;;9.90;6.18;;;19.10;99.90;;;;;;6190625;23;20100;-93
2022/06/26 07:43:09;;;;;;;11.95;6.68;;;19.10;99.90;;;;;;6190651;23;20056;-91
2022/06/26 07:45:35;;;;;;;10.23;6.13;;;19.10;99.90;;;;;;6190774;23;20021;-92
2022/06/26 07:48:00;;;;;;;10.20;6.18;;;19.10;99.90;;;;;;6190504;23;20017;-91
2022/06/26 07:50:26;;;;;;;10.57;5.93;;;19.10;99.90;;;;;;6190153;23;20020;-91
2022/06/26 07:52:52;;;;;;;11.52;6.97;;;19.00;99.90;;;;;;6190720;23;20012;-90
2022/06/26 07:55:18;;;;;;;10.65;6.65;;;19.00;99.90;;;;;;6190189;23;20028;-92
2022/06/26 07:57:43;;;;;;;11.70;6.88;;;19.00;99.90;;;;;;6190228;23;20017;-89
2022/06/26 08:00:12;;;;;;;11.50;7.70;;;19.00;99.90;;;;;;6190475;23;20473;-91
2022/06/26 08:02:41;;;;;;;12.60;7.82;;;19.00;99.90;;;;;;6190397;23;20043;-93
2022/06/26 08:05:07;;;;;;;12.30;7.45;;;19.00;99.90;;;;;;6190815;23;20023;-91
2022/06/26 08:07:33;;;;;;;11.65;7.10;;;19.00;99.90;;;;;;6190585;23;20401;-91
2022/06/26 08:09:59;;;;;;;12.70;7.68;;;19.10;99.90;;;;;;6190349;23;20016;-90
2022/06/26 08:12:25;;;;;;;10.82;6.80;;;19.10;99.90;;;;;;6190367;23;20070;-92
2022/06/26 08:14:55;;;;;;;12.98;6.85;;;19.20;99.90;;;;;;6190571;23;20013;-92
2022/06/26 08:17:21;;;;;;;9.50;6.20;;;19.20;99.90;;;;;;6190305;23;20099;-94
2022/06/26 08:19:48;;;;;;;10.05;6.18;;;19.30;99.90;;;;;;6190522;23;20063;-91
2022/06/26 08:22:14;;;;;;;11.68;5.90;;;19.40;99.90;;;;;;6190212;23;20093;-95
2022/06/26 08:24:41;;;;;;;10.82;5.90;;;19.50;99.90;;;;;;6190431;23;20024;-92
2022/06/26 08:27:11;;;;;;;10.55;5.00;;;19.60;99.90;;;;;;6190003;23;20073;-91
2022/06/26 08:30:29;;;;;;;9.15;4.55;;;19.60;99.90;;;;;;6189048;23;20016;-93
2022/06/26 08:33:34;;;;;;;10.35;5.25;;;19.70;99.90;;;;;;6186918;23;20486;-94
2022/06/26 09:36:38;;;;;;;4.82;3.47;;;20.20;99.90;;;;;;6276126;22;20019;-87
2022/06/26 09:57:14;;;;;;;4.18;1.88;;;20.00;99.90;;;;;;6212536;22;20051;-90
2022/06/26 09:59:41;;;;;;;3.65;1.75;;;20.00;99.90;;;;;;6192824;23;20438;-89
2022/06/26 10:07:58;;;;;;;4.28;2.20;;;20.10;99.90;;;;;;6219753;23;20476;-92
2022/06/26 10:10:24;;;;;;;3.53;1.80;;;20.10;99.90;;;;;;6194750;23;20012;-91
2022/06/26 10:13:02;;;;;;;2.40;1.15;;;20.20;99.90;;;;;;6195551;23;20436;-95
2022/06/26 10:15:35;;;;;;;2.55;1.33;;;20.20;99.90;;;;;;6197226;23;20012;-91
2022/06/26 10:18:27;;;;;;;2.15;1.20;;;20.30;99.90;;;;;;6196879;23;20016;-90
2022/06/26 10:20:56;;;;;;;2.65;1.30;;;20.40;99.90;;;;;;6166179;23;20019;-91
2022/06/26 10:23:45;;;;;;;2.97;1.20;;;20.50;99.90;;;;;;6196401;23;20072;-91
2022/06/26 23:59:19;;;;;;;5.78;3.10;;;17.90;99.90;;;;;;6276185;22;20027;-90
